Aérodrome :
LOGIN :

S'inscrire | Disclaimer

   EN    FR    IT 

 










Légende :    VFR   VFR Marginal   IFR   IFR Intensif   IFR Très Intensif
Visi : 
Plafond : 
>= 8 km
>= 3000ft
5 à 8 km
1000 à 3000 ft
1500m à 5 km
500 à 1000 ft
800 à 1500m
200 à 500 ft
< 800m
< 200 ft
Symboles :   Orages  Brouillard  Fortes neiges  Fortes précipitations  Vent > 20 kt
SIGMETs :   Divers  Orages  Givrage  Turbulence  Onde Orograph.  Cendres Volcan.







- Altitude de l'aérodrome : 15 ft
- Code IATA : FCO


LIRF - Roma Leonardo da Vinci Fiumicino

DERNIER METAR :
  • 270120Z 13011KT CAVOK 25/23 Q1010 NOSIG

METARs EXPIRÉS :
  • 270050Z 13013KT CAVOK 24/23 Q1010 NOSIG
  • 270020Z 13010KT 8000 FEW012 SCT050 24/23 Q1011 NOSIG
  • 262350Z VRB03KT 8000 SCT012 SCT050 24/23 Q1012 NOSIG
  • 262320Z VRB03KT 8000 SCT050 25/23 Q1012 NOSIG
  • 262250Z 12005KT 9000 NSC 24/22 Q1012 NOSIG

TAF TAF LIRF
Valide du 27 à 00h jusqu'au 28 à 06h UTC


262300Z 2700/2806 VRB04KT 9999 FEW030
BECMG 2702/2704 13010KT
BECMG 2708/2710 19015G25KT
BECMG 2717/2719 VRB06KT
Pas de NOTAMs connus pour ce terrain.



MET'MAP, la Météo Aéronautique d'un coup d'oeil ! - Copyright ORBIFLY Décembre 2007 - Disclaimer

ORBIFLY MET'MAP TEAM :

Programmation & Développement : Alexandra Zaïnal
Conception & Développement : Baudouin d'Aumeries
Co-Programmation & Développement : Marc-Olivier Méhu
Soutien technique & logistique : Manuel Goepfert

Contact : metmap@orbifly.com




SOURCES & CREDITS :

   NOAA